East Otis, Massachusetts
Current Conditions -  °F | °C
As of 11:53 AM on Monday 24 Nov 2014 (Local Time) from KBAF Reporting Station
Overcast Overcast  
Wind Chill: 64°   Ceiling: 2200
Heat Index: 64°   Visibility: 10mi
Dew Point: 59°   Wind: 10mph
Humidity: 84%   Direction: 170°S
Pressure: 29.61"   Gusts: NA
Location:  42.17°N, 73.03°W
Report Text: KBAF 241653Z 17009KT 10SM BKN022 OVC027 18/15 A2961 RMK AO2 SLP029 T01780150
Loading
Personal Weather Stations






























Interactive Weather Map New forecast layout! Learn more

10-Day Weather Forecast

Advertisements
Track Severe Weather on mobile